Time;durP1;ratioP1;P1;durP2;ratioP2;P2;SDS_P1;SDS_P2;PMS_P1;PMS_P2;Temp;Humidity;BMP_temperature;BMP_pressure;BME280_temperature;BME280_humidity;BME280_pressure;Samples;Min_cycle;Max_cycle;Signal;HPM_P1;HPM_P2
2022/10/22 00:01:18;;;;;;;2.50;1.67;;;;;;;15.46;71.19;100839.22;5108520;28;20058;-62
2022/10/22 00:03:46;;;;;;;6.00;2.10;;;;;;;15.45;71.39;100840.28;5108095;28;20051;-62
2022/10/22 00:06:14;;;;;;;2.97;1.55;;;;;;;15.45;71.20;100832.16;5107410;28;20044;-62
2022/10/22 00:08:42;;;;;;;2.72;1.60;;;;;;;15.44;71.15;100835.94;5108474;28;20056;-62
2022/10/22 00:11:15;;;;;;;4.32;1.65;;;;;;;15.42;71.35;100841.63;5107765;28;20412;-62
2022/10/22 00:13:45;;;;;;;2.70;1.40;;;;;;;15.42;71.15;100843.50;5111856;28;20063;-62
2022/10/22 00:16:13;;;;;;;3.53;1.75;;;;;;;15.41;71.21;100844.59;5109638;28;20044;-62
2022/10/22 00:18:41;;;;;;;4.20;2.35;;;;;;;15.41;71.17;100837.28;5122378;28;20040;-62
2022/10/22 00:21:09;;;;;;;3.65;2.13;;;;;;;15.40;71.06;100834.81;5110952;28;20092;-62
2022/10/22 00:23:40;;;;;;;3.30;1.75;;;;;;;15.39;71.11;100835.91;5125381;28;20400;-62
2022/10/22 00:26:09;;;;;;;2.63;1.50;;;;;;;15.37;71.03;100838.84;5113377;28;20045;-62
2022/10/22 00:28:37;;;;;;;3.08;1.63;;;;;;;15.37;71.12;100838.03;5114261;28;20047;-62
2022/10/22 00:31:06;;;;;;;4.70;1.85;;;;;;;15.36;71.06;100839.09;5115195;28;20048;-62
2022/10/22 00:33:34;;;;;;;2.45;1.73;;;;;;;15.35;71.09;100842.88;5118670;28;20055;-62
2022/10/22 00:36:02;;;;;;;3.17;1.83;;;;;;;15.34;71.01;100842.06;5117351;28;20048;-62
2022/10/22 00:38:30;;;;;;;2.78;1.75;;;;;;;15.34;71.17;100836.66;5120636;28;20198;-62
2022/10/22 00:40:57;;;;;;;3.65;1.60;;;;;;;15.33;71.00;100840.44;5107838;28;20059;-62
2022/10/22 00:43:27;;;;;;;4.40;2.03;;;;;;;15.33;71.03;100834.19;5111445;28;20475;-62
2022/10/22 00:45:54;;;;;;;5.80;2.22;;;;;;;15.32;71.05;100829.84;5120062;28;20055;-62
2022/10/22 00:48:27;;;;;;;2.63;1.90;;;;;;;15.31;71.01;100839.88;5120091;28;20058;-62
2022/10/22 00:50:58;;;;;;;3.72;1.75;;;;;;;15.29;71.09;100842.00;5109667;28;20055;-62
2022/10/22 00:53:31;;;;;;;4.68;2.10;;;;;;;15.29;71.05;100850.94;5115293;28;20054;-62
2022/10/22 00:56:00;;;;;;;4.30;1.75;;;;;;;15.28;71.07;100848.50;5109726;28;20389;-62
2022/10/22 00:58:31;;;;;;;3.20;1.98;;;;;;;15.27;71.06;100842.25;5120850;28;20397;-62
2022/10/22 01:00:59;;;;;;;4.15;1.90;;;;;;;15.25;71.09;100844.41;5114732;28;20050;-62
2022/10/22 01:03:28;;;;;;;4.10;1.75;;;;;;;15.25;71.09;100841.69;5110274;28;20044;-62
2022/10/22 01:05:58;;;;;;;3.42;1.80;;;;;;;15.24;70.92;100837.34;5109073;28;20058;-62
2022/10/22 01:08:32;;;;;;;3.88;1.95;;;;;;;15.24;71.10;100841.94;5106629;28;20044;-62
2022/10/22 01:11:11;;;;;;;2.47;1.73;;;;;;;15.23;70.99;100843.84;5105788;28;20048;-62
2022/10/22 01:13:49;;;;;;;5.25;2.25;;;;;;;15.22;71.10;100842.19;5112842;28;20051;-62
2022/10/22 01:16:23;;;;;;;4.00;1.90;;;;;;;15.21;70.95;100835.16;5122000;28;20051;-62
2022/10/22 01:19:00;;;;;;;5.82;2.00;;;;;;;15.20;70.98;100835.41;5110438;28;20043;-62
2022/10/22 01:21:33;;;;;;;4.75;2.53;;;;;;;15.18;71.04;100849.19;5118225;28;20046;-61
2022/10/22 01:24:44;;;;;;;3.80;1.98;;;;;;;15.19;71.08;100850.81;5118082;28;20054;-61
2022/10/22 01:27:41;;;;;;;5.28;1.90;;;;;;;15.18;70.87;100848.38;5047897;28;20061;-61
2022/10/22 01:30:14;;;;;;;3.25;2.00;;;;;;;15.15;70.99;100847.00;5043994;28;20055;-61
2022/10/22 01:32:48;;;;;;;5.00;2.10;;;;;;;15.14;71.17;100842.66;5043483;28;20049;-61
2022/10/22 01:35:22;;;;;;;5.80;1.83;;;;;;;15.14;71.03;100837.22;5043218;28;20045;-61
2022/10/22 01:37:51;;;;;;;3.53;1.98;;;;;;;15.15;71.06;100838.06;5060511;28;20049;-61
2022/10/22 01:40:21;;;;;;;5.63;2.00;;;;;;;15.14;71.04;100837.22;5050068;28;20144;-61
2022/10/22 01:42:57;;;;;;;5.47;2.17;;;;;;;15.12;71.17;100830.44;5053095;28;20049;-61
2022/10/22 01:45:26;;;;;;;5.15;1.98;;;;;;;15.12;71.09;100833.13;5043149;28;20055;-61
2022/10/22 01:48:02;;;;;;;4.97;2.25;;;;;;;15.10;70.91;100836.09;5053030;28;20041;-61
2022/10/22 01:50:58;;;;;;;4.53;1.75;;;;;;;15.10;71.17;100835.28;5049613;28;20056;-61
2022/10/22 01:53:36;;;;;;;4.05;1.80;;;;;;;15.10;71.18;100838.00;5043625;28;20085;-61
2022/10/22 01:56:17;;;;;;;6.53;2.55;;;;;;;15.09;70.92;100839.06;5049790;28;20175;-61
2022/10/22 01:58:54;;;;;;;6.40;2.17;;;;;;;15.08;71.07;100837.41;5107806;28;20055;-61
2022/10/22 02:01:31;;;;;;;5.78;2.17;;;;;;;15.08;71.08;100849.06;5115474;28;20047;-61
2022/10/22 02:04:05;;;;;;;7.13;2.15;;;;;;;15.07;70.96;100839.31;5111529;28;20040;-62
2022/10/22 02:06:36;;;;;;;4.90;2.35;;;;;;;15.06;70.96;100834.97;5105292;28;20149;-61
2022/10/22 02:09:05;;;;;;;8.38;2.33;;;;;;;15.07;71.02;100839.31;5105145;28;20040;-61
2022/10/22 02:11:33;;;;;;;6.15;2.30;;;;;;;15.07;71.01;100838.50;5105345;28;20047;-61
2022/10/22 02:14:04;;;;;;;4.40;1.92;;;;;;;15.04;71.16;100836.28;5105294;28;20075;-61
2022/10/22 02:16:38;;;;;;;6.38;2.50;;;;;;;15.05;71.30;100833.31;5104413;28;20048;-61
2022/10/22 02:19:11;;;;;;;4.18;1.83;;;;;;;15.05;71.15;100838.75;5108194;28;20503;-61
2022/10/22 02:21:39;;;;;;;4.07;2.30;;;;;;;15.05;71.02;100838.75;5111307;28;20043;-61
2022/10/22 02:24:07;;;;;;;5.65;2.33;;;;;;;15.05;71.07;100833.31;5122403;28;20051;-61
2022/10/22 02:26:41;;;;;;;5.75;2.45;;;;;;;15.04;71.18;100830.88;5115070;28;20040;-61
2022/10/22 02:29:14;;;;;;;5.10;1.98;;;;;;;15.03;71.14;100831.94;5105049;28;20159;-61
2022/10/22 02:31:46;;;;;;;3.17;2.08;;;;;;;15.01;70.99;100832.19;5106783;28;20050;-61
2022/10/22 02:34:19;;;;;;;6.13;2.10;;;;;;;15.02;71.01;100841.94;5107355;28;20062;-61
2022/10/22 02:36:48;;;;;;;7.38;2.35;;;;;;;15.00;70.99;100841.38;5111624;28;20044;-61
2022/10/22 02:39:19;;;;;;;4.32;2.13;;;;;;;15.00;71.21;100841.38;5104676;28;20059;-61
2022/10/22 02:41:48;;;;;;;6.30;2.72;;;;;;;14.99;71.16;100839.75;5110772;28;20048;-61
2022/10/22 02:44:20;;;;;;;8.07;2.42;;;;;;;14.96;71.21;100834.84;5109745;28;20043;-62
2022/10/22 02:46:49;;;;;;;4.78;2.10;;;;;;;14.97;71.25;100842.69;5115620;28;20159;-61
2022/10/22 02:49:17;;;;;;;3.00;1.88;;;;;;;14.96;71.24;100848.38;5108886;28;20058;-61
2022/10/22 02:51:45;;;;;;;5.18;2.03;;;;;;;14.94;71.10;100845.91;5110079;28;20061;-61
2022/10/22 02:54:12;;;;;;;5.45;2.83;;;;;;;14.95;71.17;100850.25;5112178;28;20047;-61
2022/10/22 02:56:40;;;;;;;4.07;2.15;;;;;;;14.94;71.14;100850.50;5107433;28;20056;-61
2022/10/22 02:59:08;;;;;;;4.60;2.08;;;;;;;14.93;70.98;100848.88;5113306;28;20069;-61
2022/10/22 03:01:35;;;;;;;4.22;1.92;;;;;;;14.91;71.09;100846.41;5104877;28;20058;-61
2022/10/22 03:04:05;;;;;;;4.82;2.08;;;;;;;14.92;71.19;100856.16;5110042;28;20488;-61
2022/10/22 03:06:32;;;;;;;6.70;2.20;;;;;;;14.91;71.17;100851.00;5108774;28;20052;-61
2022/10/22 03:09:00;;;;;;;3.85;2.47;;;;;;;14.89;71.21;100850.44;5114353;28;20055;-61
2022/10/22 03:11:28;;;;;;;3.42;2.10;;;;;;;14.89;70.98;100853.97;5120674;28;20048;-61
2022/10/22 03:13:56;;;;;;;5.47;2.35;;;;;;;14.88;71.20;100860.44;5108943;28;20070;-61
2022/10/22 03:16:23;;;;;;;7.90;2.03;;;;;;;14.86;71.25;100851.75;5111996;28;20052;-61
2022/10/22 03:18:51;;;;;;;6.13;2.28;;;;;;;14.86;71.27;100862.56;5116025;28;20040;-61
2022/10/22 03:21:28;;;;;;;5.55;2.35;;;;;;;14.86;71.24;100859.88;5111471;28;20044;-61
2022/10/22 03:23:56;;;;;;;10.20;2.15;;;;;;;14.86;71.02;100867.16;5112225;28;20056;-61
2022/10/22 03:26:25;;;;;;;6.25;2.22;;;;;;;14.85;71.21;100869.06;5118621;28;20058;-61
2022/10/22 03:28:54;;;;;;;5.20;2.60;;;;;;;14.86;71.17;100875.28;5109407;28;20040;-61
2022/10/22 03:31:21;;;;;;;4.93;2.17;;;;;;;14.84;71.30;100874.72;5122455;28;20047;-61
2022/10/22 03:33:49;;;;;;;4.65;2.28;;;;;;;14.84;71.35;100880.13;5115328;28;20059;-61
2022/10/22 03:36:17;;;;;;;7.32;2.47;;;;;;;14.83;71.16;100878.50;5112668;28;20048;-61
2022/10/22 03:38:46;;;;;;;6.70;2.38;;;;;;;14.82;70.99;100877.66;5113459;28;20046;-61
2022/10/22 03:41:14;;;;;;;5.63;2.17;;;;;;;14.80;70.96;100879.81;5120036;28;20048;-61
2022/10/22 03:43:42;;;;;;;5.13;2.17;;;;;;;14.80;71.33;100885.22;5115893;28;20400;-61
2022/10/22 03:46:09;;;;;;;4.45;2.42;;;;;;;14.80;71.17;100885.22;5109187;28;20052;-61
2022/10/22 03:48:37;;;;;;;4.45;2.13;;;;;;;14.80;71.06;100884.41;5111306;28;20044;-61
2022/10/22 03:51:05;;;;;;;7.35;2.17;;;;;;;14.79;71.12;100889.00;5110904;28;20411;-61
2022/10/22 03:53:33;;;;;;;4.60;2.47;;;;;;;14.80;71.10;100895.22;5117745;28;20066;-61
2022/10/22 03:56:02;;;;;;;4.78;1.92;;;;;;;14.79;71.25;100899.00;5107616;28;20048;-61
2022/10/22 03:58:30;;;;;;;4.43;2.00;;;;;;;14.79;71.37;100901.69;5115929;28;20040;-61
2022/10/22 04:00:57;;;;;;;7.07;2.70;;;;;;;14.78;71.07;100895.47;5108129;28;20055;-61
2022/10/22 04:03:25;;;;;;;6.25;1.90;;;;;;;14.79;71.28;100893.59;5108269;28;20473;-61
2022/10/22 04:05:53;;;;;;;5.50;1.88;;;;;;;14.79;71.07;100901.69;5107759;28;20048;-61
2022/10/22 04:08:20;;;;;;;8.80;2.20;;;;;;;14.78;71.32;100900.06;5110379;28;20153;-61
2022/10/22 04:10:51;;;;;;;3.65;2.00;;;;;;;14.78;71.26;100894.66;5110843;28;20044;-61
2022/10/22 04:13:20;;;;;;;3.53;1.98;;;;;;;14.77;71.02;100907.38;5111742;28;20052;-61
2022/10/22 04:15:48;;;;;;;6.25;2.60;;;;;;;14.77;71.16;100895.72;5112539;28;20048;-61
2022/10/22 04:18:15;;;;;;;5.30;2.20;;;;;;;14.76;71.29;100907.63;5108772;28;20054;-61
2022/10/22 04:20:43;;;;;;;7.00;2.42;;;;;;;14.76;71.14;100899.50;5117039;28;20491;-61
2022/10/22 04:23:11;;;;;;;4.25;2.08;;;;;;;14.75;71.22;100904.09;5114227;28;20051;-61
2022/10/22 04:25:38;;;;;;;3.55;1.83;;;;;;;14.72;71.27;100899.16;5109906;28;20079;-61
2022/10/22 04:28:07;;;;;;;5.78;2.28;;;;;;;14.75;71.29;100905.97;5112047;28;20056;-61
2022/10/22 04:30:36;;;;;;;6.63;2.13;;;;;;;14.75;71.24;100903.25;5113048;28;20048;-61
2022/10/22 04:33:03;;;;;;;7.03;2.40;;;;;;;14.73;71.21;100908.09;5108491;28;20058;-61
2022/10/22 04:35:31;;;;;;;4.65;1.80;;;;;;;14.71;71.13;100902.94;5123582;28;20149;-61
2022/10/22 04:37:59;;;;;;;6.18;2.20;;;;;;;14.72;71.29;100910.00;5120137;28;20071;-61
2022/10/22 04:40:26;;;;;;;6.70;1.98;;;;;;;14.73;71.11;100910.81;5111431;28;20058;-61
2022/10/22 04:42:54;;;;;;;9.38;2.35;;;;;;;14.73;71.24;100910.81;5107358;28;20058;-61
2022/10/22 04:45:22;;;;;;;4.45;2.00;;;;;;;14.71;71.45;100905.66;5118467;28;20071;-61
2022/10/22 04:47:51;;;;;;;4.60;1.85;;;;;;;14.71;71.21;100908.34;5115344;28;20054;-61
2022/10/22 04:50:19;;;;;;;5.03;1.77;;;;;;;14.71;71.30;100912.94;5108990;28;20048;-61
2022/10/22 04:52:47;;;;;;;4.03;1.77;;;;;;;14.70;71.58;100917.53;5120766;28;20051;-61
2022/10/22 04:55:15;;;;;;;6.80;2.00;;;;;;;14.69;71.45;100918.59;5112161;28;20048;-61
2022/10/22 04:57:43;;;;;;;7.03;1.67;;;;;;;14.68;71.25;100919.66;5107070;28;20048;-61
2022/10/22 05:00:11;;;;;;;5.63;2.05;;;;;;;14.68;71.25;100926.97;5107576;28;20062;-61
2022/10/22 05:02:39;;;;;;;6.35;2.13;;;;;;;14.68;71.41;100925.09;5123024;28;20161;-61
2022/10/22 05:05:08;;;;;;;7.05;1.95;;;;;;;14.68;71.43;100919.66;5111547;28;20057;-61
2022/10/22 05:07:36;;;;;;;4.95;1.80;;;;;;;14.68;71.27;100926.97;5109808;28;20077;-61
2022/10/22 05:10:05;;;;;;;6.95;2.03;;;;;;;14.67;71.38;100923.44;5112722;28;20047;-61
2022/10/22 05:12:32;;;;;;;6.57;2.13;;;;;;;14.68;71.30;100922.38;5124910;28;20051;-61
2022/10/22 05:15:00;;;;;;;3.92;1.70;;;;;;;14.69;71.46;100924.00;5107616;28;20054;-61
2022/10/22 05:17:28;;;;;;;3.40;1.63;;;;;;;14.71;71.54;100918.34;5106309;28;20051;-61
2022/10/22 05:19:55;;;;;;;6.60;2.20;;;;;;;14.71;71.21;100927.28;5108215;28;20044;-60
2022/10/22 05:22:24;;;;;;;3.33;1.95;;;;;;;14.71;71.36;100921.06;4752840;27;9999947;-61
2022/10/22 05:24:52;;;;;;;7.25;1.70;;;;;;;14.71;71.24;100919.19;5101519;28;20048;-60
2022/10/22 05:27:20;;;;;;;4.10;1.80;;;;;;;14.71;71.15;100934.59;5103044;28;20146;-61
2022/10/22 05:29:47;;;;;;;7.45;1.77;;;;;;;14.71;71.47;100929.19;5103500;28;20048;-60
2022/10/22 05:32:15;;;;;;;5.00;1.88;;;;;;;14.71;71.53;100930.00;5102891;28;20516;-60
2022/10/22 05:34:43;;;;;;;7.15;1.80;;;;;;;14.70;71.15;100928.34;5103583;28;20497;-60
2022/10/22 05:37:10;;;;;;;4.50;2.17;;;;;;;14.77;71.74;100933.59;5112583;28;20150;-59
2022/10/22 05:39:40;;;;;;;5.50;2.05;;;;;;;14.72;71.43;100926.22;5105763;28;20048;-59
2022/10/22 05:42:08;;;;;;;4.55;2.13;;;;;;;14.70;71.34;100939.19;5104053;28;20051;-60
2022/10/22 05:44:35;;;;;;;5.03;1.42;;;;;;;14.70;71.41;100938.34;5110083;28;20075;-62
2022/10/22 05:47:03;;;;;;;5.68;1.80;;;;;;;14.68;71.36;100949.44;5104047;28;20055;-62
2022/10/22 05:49:31;;;;;;;6.28;2.08;;;;;;;14.69;71.27;100958.34;5113100;28;20039;-63
2022/10/22 05:51:58;;;;;;;5.25;1.90;;;;;;;14.67;71.24;100953.19;5105378;28;20052;-63
2022/10/22 05:54:26;;;;;;;2.35;1.58;;;;;;;14.67;71.55;100953.19;5103658;28;20087;-63
2022/10/22 05:56:55;;;;;;;5.97;1.58;;;;;;;14.67;71.29;100963.19;5103759;28;20052;-63
2022/10/22 05:59:23;;;;;;;5.90;2.42;;;;;;;14.66;71.66;100959.66;5104235;28;20056;-61
2022/10/22 06:01:51;;;;;;;5.68;1.65;;;;;;;14.65;71.39;100956.16;5104350;28;20159;-60
2022/10/22 06:04:18;;;;;;;6.38;1.70;;;;;;;14.65;71.56;100966.97;5103523;28;20051;-61
2022/10/22 06:06:47;;;;;;;6.20;1.75;;;;;;;14.66;71.50;100970.50;5101552;28;20060;-61
2022/10/22 06:09:19;;;;;;;6.35;1.80;;;;;;;14.66;71.55;100970.50;5106476;28;20039;-61
2022/10/22 06:11:48;;;;;;;6.03;1.73;;;;;;;14.66;71.52;100978.59;5110878;28;20052;-61
2022/10/22 06:14:18;;;;;;;5.78;1.60;;;;;;;14.66;71.64;100981.31;5099445;28;20052;-61
2022/10/22 06:16:46;;;;;;;5.22;1.98;;;;;;;14.64;71.33;100984.25;5112752;28;20052;-62
2022/10/22 06:19:16;;;;;;;7.20;2.38;;;;;;;14.65;71.53;100990.50;5105773;28;20054;-62
2022/10/22 06:21:44;;;;;;;3.75;1.70;;;;;;;14.63;71.53;100988.03;5114044;28;20055;-63
2022/10/22 06:24:13;;;;;;;2.88;1.58;;;;;;;14.63;71.72;100990.75;5101589;28;20420;-63
2022/10/22 06:26:41;;;;;;;4.75;1.65;;;;;;;14.63;71.44;100988.03;5102005;28;20047;-62
2022/10/22 06:29:08;;;;;;;3.55;1.70;;;;;;;14.64;71.50;100994.25;5101869;28;20051;-62
2022/10/22 06:31:37;;;;;;;4.30;1.70;;;;;;;14.64;71.68;100991.56;5108689;28;20049;-62
2022/10/22 06:34:07;;;;;;;5.60;1.73;;;;;;;14.64;71.40;101005.09;5106175;28;20048;-62
2022/10/22 06:36:36;;;;;;;4.10;1.58;;;;;;;14.63;71.32;101006.16;5109210;28;20052;-63
2022/10/22 06:39:05;;;;;;;4.45;1.80;;;;;;;14.63;71.53;101009.66;5114142;28;20047;-62
2022/10/22 06:41:32;;;;;;;6.82;1.95;;;;;;;14.61;71.45;101005.56;5104751;28;20052;-62
2022/10/22 06:44:00;;;;;;;6.40;2.00;;;;;;;14.63;71.65;101017.78;5105452;28;20101;-61
2022/10/22 06:46:28;;;;;;;6.53;1.70;;;;;;;14.62;71.77;101020.72;5104601;28;20052;-62
2022/10/22 06:49:00;;;;;;;4.22;1.65;;;;;;;14.62;71.41;101032.38;5115189;28;20190;-61
2022/10/22 06:51:28;;;;;;;4.13;1.98;;;;;;;14.63;71.49;101033.19;5101380;28;20064;-62
2022/10/22 06:53:56;;;;;;;3.25;1.83;;;;;;;14.63;71.60;101039.44;5105300;28;20672;-62
2022/10/22 06:56:26;;;;;;;4.07;1.85;;;;;;;14.62;71.47;101040.50;5104659;28;20046;-62
2022/10/22 06:58:56;;;;;;;5.25;1.80;;;;;;;14.62;71.72;101042.38;5102311;28;20056;-62
2022/10/22 07:01:25;;;;;;;3.38;1.52;;;;;;;14.62;71.40;101034.25;5100658;28;20062;-62
2022/10/22 07:03:54;;;;;;;7.22;1.85;;;;;;;14.60;71.63;101052.63;5110065;28;20052;-62
2022/10/22 07:06:24;;;;;;;4.72;1.90;;;;;;;14.61;71.38;101051.56;5115943;28;20062;-62
2022/10/22 07:08:53;;;;;;;5.00;2.40;;;;;;;14.61;71.76;101055.09;5107732;28;20091;-65
2022/10/22 07:11:23;;;;;;;3.72;1.83;;;;;;;14.63;71.55;101060.25;5103972;28;20040;-61
2022/10/22 07:13:51;;;;;;;6.55;1.92;;;;;;;14.62;71.68;101061.31;5100960;28;20051;-61
2022/10/22 07:16:19;;;;;;;5.82;1.90;;;;;;;14.62;72.06;101072.13;5099793;28;20059;-62
2022/10/22 07:18:47;;;;;;;8.23;2.75;;;;;;;14.61;71.66;101075.91;5117014;28;20055;-62
2022/10/22 07:21:17;;;;;;;4.75;1.63;;;;;;;14.60;71.88;101072.38;5105511;28;20055;-62
2022/10/22 07:23:46;;;;;;;5.93;1.73;;;;;;;14.61;71.57;101079.44;5111182;28;20115;-62
2022/10/22 07:26:16;;;;;;;7.57;1.60;;;;;;;14.61;71.83;101074.00;5105161;28;20054;-63
2022/10/22 07:28:44;;;;;;;2.63;1.38;;;;;;;14.61;71.76;101084.00;5108608;28;20044;-62
2022/10/22 07:31:14;;;;;;;5.70;1.98;;;;;;;14.62;71.47;101089.19;5106363;28;20040;-62
2022/10/22 07:33:42;;;;;;;5.07;2.10;;;;;;;14.62;71.70;101091.06;5104782;28;20058;-62
2022/10/22 07:36:16;;;;;;;5.57;1.80;;;;;;;14.60;71.54;101091.31;5110840;28;20058;-64
2022/10/22 07:38:44;;;;;;;4.43;1.90;;;;;;;14.63;71.72;101104.34;5108383;28;20070;-61
2022/10/22 07:41:14;;;;;;;6.40;1.83;;;;;;;14.64;71.79;101103.28;5105747;28;20048;-61
2022/10/22 07:43:42;;;;;;;8.00;2.05;;;;;;;14.64;71.63;101110.59;5110357;28;20067;-61
2022/10/22 07:46:10;;;;;;;6.93;2.13;;;;;;;14.63;71.57;101112.47;5107663;28;20044;-62
2022/10/22 07:48:38;;;;;;;7.13;2.05;;;;;;;14.62;71.60;101116.22;5103035;28;20048;-61
2022/10/22 07:51:06;;;;;;;4.88;1.92;;;;;;;14.63;71.64;101112.47;5104614;28;20579;-62
2022/10/22 07:53:33;;;;;;;3.42;1.48;;;;;;;14.64;71.50;101118.69;5109405;28;20052;-61
2022/10/22 07:56:01;;;;;;;3.10;1.40;;;;;;;14.64;71.79;101116.00;5113421;28;20039;-61
2022/10/22 07:58:30;;;;;;;7.97;2.03;;;;;;;14.65;71.65;101120.34;5120900;28;20055;-61
2022/10/22 08:01:00;;;;;;;8.75;2.03;;;;;;;14.66;71.67;101127.38;5107778;28;20058;-62
2022/10/22 08:03:28;;;;;;;6.15;1.90;;;;;;;14.66;72.01;101127.38;5110081;28;20058;-61
2022/10/22 08:05:56;;;;;;;5.32;1.80;;;;;;;14.69;71.93;101132.31;5105594;28;20063;-62
2022/10/22 08:08:25;;;;;;;6.13;2.10;;;;;;;14.70;71.72;101133.97;5111384;28;20048;-61
2022/10/22 08:10:59;;;;;;;14.52;2.53;;;;;;;14.72;71.92;101137.25;5108672;28;20489;-62
2022/10/22 08:13:29;;;;;;;4.18;2.00;;;;;;;14.71;72.17;101135.59;5105974;28;20055;-62
2022/10/22 08:15:59;;;;;;;5.60;2.10;;;;;;;14.75;72.33;101138.66;5108636;28;20043;-62
2022/10/22 08:18:27;;;;;;;9.38;2.83;;;;;;;14.75;72.09;101144.06;5113902;28;20044;-62
2022/10/22 08:20:55;;;;;;;5.93;1.65;;;;;;;14.75;71.98;101138.66;5110343;28;20419;-62
2022/10/22 08:23:23;;;;;;;10.00;2.17;;;;;;;14.79;72.43;101150.63;5118916;28;20410;-62
2022/10/22 08:25:55;;;;;;;6.35;2.38;;;;;;;14.83;72.87;101143.66;5109374;28;20047;-62
2022/10/22 08:28:23;;;;;;;6.00;1.95;;;;;;;14.80;72.27;101150.38;5108680;28;20075;-63
2022/10/22 08:30:51;;;;;;;6.82;2.13;;;;;;;14.79;72.07;101156.84;5106504;28;20059;-62
2022/10/22 08:33:20;;;;;;;10.23;2.30;;;;;;;14.79;72.63;101156.03;5119289;28;20139;-62
2022/10/22 08:35:49;;;;;;;6.97;2.70;;;;;;;14.81;72.56;101164.72;5114252;28;20048;-62
2022/10/22 08:38:17;;;;;;;5.22;1.80;;;;;;;14.89;72.25;101167.88;5115068;28;20048;-63
2022/10/22 08:40:49;;;;;;;6.20;2.25;;;;;;;14.84;72.57;101167.78;5107211;28;20063;-62
2022/10/22 08:43:41;;;;;;;18.55;3.13;;;;;;;14.85;73.85;101176.72;5115975;28;20046;-60
2022/10/22 08:46:20;;;;;;;17.35;2.53;;;;;;;14.83;73.28;101187.78;5109727;28;20051;-62
2022/10/22 08:48:52;;;;;;;12.18;3.28;;;;;;;14.84;73.20;101192.13;5119978;28;20051;-64
2022/10/22 08:51:23;;;;;;;8.75;2.40;;;;;;;14.85;73.23;101193.78;5116934;28;20058;-63
2022/10/22 08:54:08;;;;;;;11.02;3.22;;;;;;;14.85;73.32;101192.94;5123452;28;20048;-62
2022/10/22 08:56:37;;;;;;;8.88;2.60;;;;;;;14.85;73.24;101193.78;5114232;28;20047;-63
2022/10/22 08:59:12;;;;;;;8.93;2.60;;;;;;;14.87;72.90;101201.66;5111468;28;20047;-63
2022/10/22 09:01:45;;;;;;;8.43;2.42;;;;;;;14.86;73.02;101200.84;5112239;28;20044;-63
2022/10/22 09:04:24;;;;;;;10.13;2.55;;;;;;;14.87;73.08;101198.94;5112441;28;20040;-65
2022/10/22 09:06:53;;;;;;;14.25;3.45;;;;;;;14.94;72.94;101207.75;5118646;28;20047;-65
2022/10/22 09:09:21;;;;;;;12.73;3.05;;;;;;;14.93;72.85;101211.50;5106660;28;20047;-64
2022/10/22 09:11:51;;;;;;;15.02;3.03;;;;;;;14.95;73.23;101215.63;5105899;28;20054;-64
2022/10/22 09:14:22;;;;;;;10.27;3.33;;;;;;;15.00;73.13;101219.47;5109561;28;20066;-66
2022/10/22 09:17:14;;;;;;;11.80;2.47;;;;;;;14.98;73.24;101225.97;5108000;28;20058;-64
2022/10/22 09:19:54;;;;;;;7.38;2.70;;;;;;;15.01;73.02;101221.13;5104542;28;20515;-64
2022/10/22 09:22:33;;;;;;;15.65;2.78;;;;;;;15.00;73.12;101225.72;5107343;28;20126;-64
2022/10/22 09:25:13;;;;;;;15.85;2.78;;;;;;;15.01;73.21;101229.25;5114911;28;20083;-64
2022/10/22 09:27:41;;;;;;;8.65;2.28;;;;;;;15.00;73.13;101230.31;5115550;28;20051;-61
2022/10/22 09:30:15;;;;;;;9.35;2.40;;;;;;;15.02;73.32;101239.00;5118157;28;20048;-65
2022/10/22 09:32:43;;;;;;;9.90;2.60;;;;;;;15.03;73.46;101230.66;5123867;28;20040;-63
2022/10/22 09:35:14;;;;;;;9.23;2.03;;;;;;;15.03;73.35;101246.91;5110766;28;20733;-65
2022/10/22 09:37:51;;;;;;;8.80;2.38;;;;;;;15.03;73.23;101246.91;5110488;28;20043;-62
2022/10/22 09:40:19;;;;;;;9.57;2.88;;;;;;;15.04;73.53;101253.94;5106622;28;20070;-63
2022/10/22 09:42:47;;;;;;;9.20;2.10;;;;;;;15.04;73.35;101250.41;5107443;28;20048;-62
2022/10/22 09:45:19;;;;;;;9.10;2.88;;;;;;;15.04;73.57;101251.25;5105431;28;20127;-64
2022/10/22 09:47:47;;;;;;;9.00;2.20;;;;;;;15.05;73.75;101252.88;5113693;28;20127;-63
2022/10/22 09:50:42;;;;;;;7.60;2.25;;;;;;;15.05;73.73;101265.59;5107744;28;20064;-62
2022/10/22 09:53:17;;;;;;;9.43;1.95;;;;;;;15.06;73.66;101264.53;5110211;28;20048;-63
2022/10/22 09:55:50;;;;;;;10.07;2.22;;;;;;;15.06;73.84;101265.34;5106539;28;20112;-64
2022/10/22 09:58:19;;;;;;;10.13;2.72;;;;;;;15.08;73.77;101271.34;5111198;28;20466;-65
2022/10/22 10:00:51;;;;;;;10.52;2.28;;;;;;;15.09;73.65;101278.41;5108018;28;20044;-63
2022/10/22 10:03:21;;;;;;;7.40;1.77;;;;;;;15.10;73.81;101279.25;5111025;28;20054;-64
2022/10/22 10:05:53;;;;;;;8.27;1.95;;;;;;;15.11;74.04;101283.59;5105321;28;20493;-65
2022/10/22 10:08:22;;;;;;;13.80;2.88;;;;;;;15.09;73.76;101277.59;5107529;28;20111;-65
2022/10/22 10:10:52;;;;;;;10.32;2.60;;;;;;;15.12;74.10;101285.22;5104183;28;20058;-66
2022/10/22 10:13:37;;;;;;;8.77;1.90;;;;;;;15.05;73.97;101277.25;5112391;28;20501;-65
2022/10/22 10:16:13;;;;;;;15.18;1.77;;;;;;;15.14;74.20;101300.16;5116824;28;20056;-66
2022/10/22 10:18:50;;;;;;;;;;;;;;;15.14;73.96;101297.47;5111117;28;20474;-66
2022/10/22 10:21:29;;;;;;;12.07;2.92;;;;;;;15.16;74.05;101305.34;5105504;28;19924;-65
2022/10/22 10:24:08;;;;;;;9.93;2.20;;;;;;;15.17;73.99;101302.41;5105847;28;20047;-67
2022/10/22 10:26:42;;;;;;;10.02;2.33;;;;;;;15.18;73.84;101314.06;5105144;28;20545;-67
2022/10/22 10:29:28;;;;;;;8.18;1.88;;;;;;;15.18;73.90;101320.28;5109723;28;20493;-65
2022/10/22 10:32:10;;;;;;;9.98;2.75;;;;;;;15.13;73.84;101312.06;5122284;28;20617;-65
2022/10/22 10:34:46;;;;;;;5.70;1.67;;;;;;;15.21;73.63;101321.69;5109882;28;20512;-64
2022/10/22 10:37:22;;;;;;;5.30;1.88;;;;;;;15.22;73.67;101323.34;5113472;28;20052;-67
2022/10/22 10:40:11;;;;;;;8.18;2.00;;;;;;;15.22;73.84;101323.34;5108460;28;20413;-68
2022/10/22 10:42:44;;;;;;;8.85;2.40;;;;;;;15.22;73.67;101326.03;5109144;28;20103;-64
2022/10/22 10:45:20;;;;;;;8.38;2.00;;;;;;;15.24;73.78;101327.44;5108014;28;20131;-64
2022/10/22 10:48:02;;;;;;;4.57;1.88;;;;;;;15.25;73.81;101322.84;5104525;28;20044;-64
2022/10/22 10:50:35;;;;;;;8.45;1.95;;;;;;;15.25;73.81;101330.97;5115416;28;20054;-65
2022/10/22 10:53:15;;;;;;;4.82;1.73;;;;;;;15.26;73.87;101327.22;5113457;28;20044;-65
2022/10/22 10:55:57;;;;;;;8.30;1.92;;;;;;;15.26;73.86;101317.19;5112751;28;20067;-64
2022/10/22 10:58:34;;;;;;;9.05;1.80;;;;;;;15.27;73.82;101324.25;5105322;28;20062;-64
2022/10/22 11:01:12;;;;;;;5.97;1.52;;;;;;;15.29;73.94;101332.97;5109538;28;20047;-64
2022/10/22 11:04:13;;;;;;;5.47;1.85;;;;;;;15.30;73.73;101318.34;5114207;28;20288;-64
2022/10/22 11:06:43;;;;;;;10.18;1.92;;;;;;;15.31;73.60;101327.31;5104826;28;20119;-64
2022/10/22 11:09:23;;;;;;;9.05;2.58;;;;;;;15.31;73.63;101324.59;5112984;28;20059;-64
2022/10/22 11:11:55;;;;;;;9.60;2.03;;;;;;;15.32;73.64;101315.41;5104363;28;20051;-65
2022/10/22 11:14:30;;;;;;;7.70;1.73;;;;;;;15.35;73.79;101327.66;5111600;28;20565;-65
2022/10/22 11:17:04;;;;;;;7.78;1.70;;;;;;;15.36;73.61;101318.47;5104685;28;20054;-65
2022/10/22 11:19:38;;;;;;;9.40;1.90;;;;;;;15.37;73.81;101322.81;5110980;28;20047;-64
2022/10/22 11:22:25;;;;;;;3.97;1.50;;;;;;;15.38;73.80;101322.56;5104961;28;20044;-65
2022/10/22 11:25:00;;;;;;;4.68;1.50;;;;;;;15.38;73.73;101327.97;5108033;28;20048;-64
2022/10/22 11:27:35;;;;;;;10.48;2.22;;;;;;;15.39;73.74;101328.81;5108889;28;20044;-64
2022/10/22 11:30:11;;;;;;;10.57;2.50;;;;;;;15.37;73.70;101323.63;5110261;28;20112;-64
2022/10/22 11:32:39;;;;;;;8.07;1.80;;;;;;;15.40;73.95;101323.16;5115421;28;20329;-65
2022/10/22 11:35:13;;;;;;;8.18;2.08;;;;;;;15.41;73.88;101329.38;5114647;28;20039;-65
2022/10/22 11:37:43;;;;;;;10.68;2.78;;;;;;;15.41;73.85;101318.56;5115013;28;20070;-65
2022/10/22 11:40:19;;;;;;;11.50;2.00;;;;;;;15.40;73.82;101311.50;5114463;28;20052;-64
2022/10/22 11:42:52;;;;;;;8.03;2.63;;;;;;;15.43;73.76;101322.66;5113864;28;20178;-65